Seabourn Quest — C6YZ5 — position and weather

sailwx.info

Track history (hours):
 
Tides and Currents Weather Stations Pressure Air Temp Water Temp Dewpoint Dewpoint Depression Visibility Wind Speed Wind Dir Waves Ship Positions

Seabourn Quest

Last reported at 2018-May-25 04:42 UTC. Time now 2018-May-25 05:29 UTC.
Position N 56°37' W 005°24'.

Length 198 m; draft 6.7 m.

Type: Ship. MMSI: 311038900.

Date/timePositionNaut miles runAvg speedWind from/ knotsBaromVisibWave heightAir tempDewpointWater temp
2018-May-25 04:42N 56°37' W 005°24'2 9.0
2018-May-25 04:29N 56°36' W 005°27'5 9.3
2018-May-25 04:00N 56°32' W 005°32'4 9.0
2018-May-25 03:30N 56°29' W 005°38'4 8.4
2018-May-25 03:00N 56°25' W 005°37'3 0.5
2018-May-24 22:03N 56°26' W 005°33'110.2
2018-May-24 22:00N 56°26' W 005°32'1 1.6
2018-May-24 21:30N 56°26' W 005°30'0 0.0
2018-May-24 21:00N 56°26' W 005°30'0 0.1
2018-May-24 20:30N 56°26' W 005°30'0 0.1
2018-May-24 20:00N 56°26' W 005°30'0 0.0
2018-May-24 19:30N 56°26' W 005°30'0 0.1
2018-May-24 18:57N 56°26' W 005°30'0 0.1
2018-May-24 18:27N 56°26' W 005°31'0 0.0
2018-May-24 18:00N 56°26' W 005°30'0 0.0
2018-May-24 17:30N 56°26' W 005°30'0 0.0
2018-May-24 17:00N 56°26' W 005°30'0 0.0
2018-May-24 16:30N 56°26' W 005°30'0 0.0
2018-May-24 15:57N 56°26' W 005°30'0 0.0
2018-May-24 15:30N 56°26' W 005°30'0 0.0
2018-May-24 14:57N 56°26' W 005°30'0 0.0
2018-May-24 14:30N 56°26' W 005°30'0 0.0
2018-May-24 14:00N 56°26' W 005°30'0 0.0
2018-May-24 13:18N 56°26' W 005°30'0 0.0
2018-May-24 08:57N 56°26' W 005°30'0 0.0
2018-May-24 08:24N 56°26' W 005°30'0 0.0
2018-May-24 07:57N 56°26' W 005°30'0 0.0
2018-May-24 07:27N 56°26' W 005°31'0 0.0
2018-May-24 06:57N 56°26' W 005°31'0 0.1
2018-May-24 06:30N 56°26' W 005°30'3 5.3
2018-May-24 05:57N 56°25' W 005°35'5110.3
2018-May-24 00:57N 55°51' W 006°44'4 9.5
2018-May-24 00:30N 55°46' W 006°43'510.1
2018-May-24 00:00N 55°42' W 006°42'5 9.8
2018-May-23 23:30N 55°37' W 006°39'510.6
2018-May-23 23:00N 55°34' W 006°32'511.1
2018-May-23 22:30N 55°30' W 006°24'817.0
2018-May-23 22:00N 55°25' W 006°12'1019.0
2018-May-23 21:30N 55°20' W 005°58'1020.7
2018-May-23 21:00N 55°15' W 005°42'4315.4
2018-May-23 18:13N 55°49' W 004°57'415.9
2018-May-23 17:59N 55°53' W 004°56'7 3.2
2018-May-23 15:41N 55°57' W 004°46'0 0.0
2018-May-23 15:29N 55°57' W 004°46'0 0.0
2018-May-23 14:59N 55°57' W 004°46'0 0.0
2018-May-23 14:29N 55°57' W 004°46'0 0.0
2018-May-23 13:53N 55°57' W 004°46'0 0.0
2018-May-23 13:29N 55°57' W 004°46'0 0.0
2018-May-23 12:59N 55°57' W 004°46'0 0.0
2018-May-23 12:29N 55°57' W 004°46'0 0.0
2018-May-23 11:59N 55°57' W 004°46'0 0.0
2018-May-23 11:29N 55°57' W 004°46'0 0.0
2018-May-23 10:59N 55°57' W 004°46'0 0.0
2018-May-23 10:29N 55°57' W 004°46'0 0.0
2018-May-23 09:59N 55°57' W 004°46'0 0.0
2018-May-23 09:29N 55°57' W 004°46'0 0.0
2018-May-23 08:59N 55°57' W 004°46'0 0.0
2018-May-23 08:29N 55°57' W 004°46'0 0.0
2018-May-23 07:59N 55°57' W 004°46'0 0.0
2018-May-23 07:29N 55°57' W 004°46'0 0.0
2018-May-23 06:59N 55°57' W 004°46'0 0.0
2018-May-23 06:29N 55°57' W 004°46'1 1.1
2018-May-23 06:00N 55°58' W 004°46'5 9.3
2018-May-23 05:27N 55°56' W 004°55'715.0
2018-May-23 05:00N 55°49' W 004°57'713.5
2018-May-23 04:30N 55°43' W 004°59'3613.0
2018-May-23 01:47N 55°09' W 005°18'414.1
2018-May-23 01:30N 55°06' W 005°22'1613.0
2018-May-23 00:17N 54°51' W 005°32'414.7
2018-May-23 00:00N 54°47' W 005°35'713.7
2018-May-22 23:31N 54°42' W 005°43'611.2
2018-May-22 23:00N 54°39' W 005°51'3 4.7
2018-May-22 22:28N 54°37' W 005°54'1 1.2
2018-May-22 21:58N 54°37' W 005°55'0 0.0
2018-May-22 21:28N 54°37' W 005°55'0 0.0
2018-May-22 20:58N 54°37' W 005°55'0 0.0
2018-May-22 20:25N 54°37' W 005°55'0 0.0
2018-May-22 19:58N 54°37' W 005°55'0 0.0
2018-May-22 19:28N 54°37' W 005°55'0 0.0
2018-May-22 18:58N 54°37' W 005°55'0 0.0
2018-May-22 18:28N 54°37' W 005°55'0 0.0
2018-May-22 17:58N 54°37' W 005°55'0 0.0
2018-May-22 17:28N 54°37' W 005°55'0 0.0
2018-May-22 16:58N 54°37' W 005°55'0 0.0
2018-May-22 16:28N 54°37' W 005°55'0 0.0
2018-May-22 15:55N 54°37' W 005°55'0 0.0
2018-May-22 15:28N 54°37' W 005°55'0 0.0
2018-May-22 14:55N 54°37' W 005°55'0 0.0
2018-May-22 14:25N 54°37' W 005°55'0 0.0
2018-May-22 13:58N 54°37' W 005°55'0 0.0
2018-May-22 13:28N 54°37' W 005°55'0 0.0
2018-May-22 12:55N 54°37' W 005°55'0 0.0
2018-May-22 12:28N 54°37' W 005°55'0 0.0
2018-May-22 11:55N 54°37' W 005°55'0 0.0
2018-May-22 11:28N 54°37' W 005°55'0 0.0
2018-May-22 10:52N 54°37' W 005°55'0 0.0
2018-May-22 10:28N 54°37' W 005°55'0 0.0
2018-May-22 09:55N 54°37' W 005°55'0 0.0
2018-May-22 09:28N 54°37' W 005°55'0 0.0
2018-May-22 08:58N 54°37' W 005°55'0 0.0
2018-May-22 08:28N 54°37' W 005°55'0 0.0
2018-May-22 07:58N 54°37' W 005°55'0 0.0
2018-May-22 07:28N 54°37' W 005°55'0 0.0
2018-May-22 06:58N 54°37' W 005°55'1 2.2
2018-May-22 06:18N 54°38' W 005°53'2 7.6
2018-May-22 06:00N 54°40' W 005°51'4 9.1
2018-May-22 05:30N 54°42' W 005°44'4 8.9
2018-May-22 05:00N 54°43' W 005°37'510.2
2018-May-22 04:30N 54°45' W 005°28'5 9.8
2018-May-22 04:00N 54°44' W 005°20'4 8.6
2018-May-22 03:30N 54°41' W 005°14'5 9.8
2018-May-22 03:00N 54°36' W 005°14'510.0
2018-May-22 02:30N 54°31' W 005°14'510.0
2018-May-22 02:00N 54°26' W 005°13'510.0
2018-May-22 01:30N 54°21' W 005°13'510.0
2018-May-22 01:00N 54°16' W 005°13'510.3
2018-May-22 00:29N 54°11' W 005°13'25 3.9
2018-May-21 18:12N 54°02' W 004°34'8 0.6
2018-May-21 06:02N 54°08' W 004°27'211.6
2018-May-21 05:53N 54°07' W 004°28'612.1
2018-May-21 05:23N 54°01' W 004°33'7313.0
2018-May-20 23:44N 52°53' W 005°18'415.1
2018-May-20 23:27N 52°49' W 005°21'816.9
2018-May-20 23:00N 52°42' W 005°23'816.3
2018-May-20 22:29N 52°33' W 005°26'816.1
2018-May-20 22:00N 52°26' W 005°30'815.7
2018-May-20 21:30N 52°18' W 005°33'815.2
2018-May-20 21:00N 52°11' W 005°37'714.7
2018-May-20 20:30N 52°04' W 005°40'714.1
2018-May-20 20:00N 51°57' W 005°43'1013.5
2018-May-20 19:15N 51°47' W 005°48'313.5
2018-May-20 19:00N 51°44' W 005°49'611.6
2018-May-20 18:30N 51°38' W 005°48'814.4
2018-May-20 17:58N 51°38' W 005°35'613.9
2018-May-20 17:30N 51°38' W 005°25'612.2
2018-May-20 17:00N 51°38' W 005°15'611.4
2018-May-20 16:30N 51°42' W 005°08'4 7.3
2018-May-20 15:59N 51°42' W 005°02'0 0.0
2018-May-20 15:29N 51°42' W 005°02'0 0.0
2018-May-20 14:59N 51°42' W 005°02'0 0.0
2018-May-20 14:29N 51°42' W 005°02'0 0.0
2018-May-20 13:59N 51°42' W 005°02'0 0.0
2018-May-20 13:29N 51°42' W 005°02'0 0.1
2018-May-20 12:59N 51°42' W 005°02'0 0.0
2018-May-20 12:29N 51°42' W 005°02'0 0.0
2018-May-20 11:59N 51°42' W 005°02'0 0.0
2018-May-20 11:29N 51°42' W 005°02'0 0.0
2018-May-20 10:59N 51°42' W 005°02'0 0.1
2018-May-20 10:29N 51°42' W 005°02'0 0.0
2018-May-20 09:53N 51°42' W 005°02'0 0.0
2018-May-20 09:23N 51°42' W 005°02'0 0.0
2018-May-20 08:59N 51°42' W 005°02'0 0.0
2018-May-20 08:23N 51°42' W 005°02'0 0.0
2018-May-20 07:59N 51°42' W 005°02'0 0.0
2018-May-20 07:29N 51°42' W 005°02'0 0.0
2018-May-20 06:59N 51°42' W 005°02'0 0.1
2018-May-20 06:30N 51°42' W 005°02'1 2.1
2018-May-20 06:00N 51°42' W 005°04'3 6.7
2018-May-20 05:30N 51°41' W 005°09'611.6
2018-May-20 05:00N 51°36' W 005°11'5 8.8
2018-May-20 04:29N 51°32' W 005°06'5 9.8
2018-May-20 04:01N 51°29' W 005°01'5 9.8
2018-May-20 03:30N 51°28' W 004°53'510.1
2018-May-20 03:00N 51°28' W 004°45'510.4
2018-May-20 02:31N 51°27' W 004°37'510.4
2018-May-20 02:00N 51°26' W 004°28'5 9.9
2018-May-20 01:30N 51°25' W 004°20'5 9.6
2018-May-20 01:00N 51°25' W 004°13'510.0
2018-May-20 00:30N 51°24' W 004°05'510.6
2018-May-20 00:01N 51°23' W 003°57'510.8
2018-May-19 23:30N 51°23' W 003°48'1611.2
2018-May-19 22:03N 51°21' W 003°22'311.2
2018-May-19 21:49N 51°21' W 003°18'1012.2
2018-May-19 20:59N 51°24' W 003°03'914.8
2018-May-19 20:22N 51°29' W 002°50'411.1
2018-May-19 20:00N 51°30' W 002°44'0 0.5
2018-May-19 19:30N 51°30' W 002°44'0 0.6
2018-May-19 19:00N 51°30' W 002°43'0 0.0
2018-May-19 18:31N 51°30' W 002°43'0 0.0
2018-May-19 18:00N 51°30' W 002°43'0 0.0
2018-May-19 17:30N 51°30' W 002°43'0 0.0
2018-May-19 17:00N 51°30' W 002°43'0 0.0
2018-May-19 16:31N 51°30' W 002°43'0 0.0
2018-May-19 16:00N 51°30' W 002°43'0 0.0
2018-May-19 15:30N 51°30' W 002°43'0 0.0
2018-May-19 15:00N 51°30' W 002°43'0 0.0
2018-May-19 14:30N 51°30' W 002°43'0 0.0
2018-May-19 14:00N 51°30' W 002°43'0 0.0
2018-May-19 13:31N 51°30' W 002°43'0 0.0
2018-May-19 13:01N 51°30' W 002°43'0 0.0
2018-May-19 12:30N 51°30' W 002°43'0 0.0
2018-May-19 12:01N 51°30' W 002°43'0 0.0
2018-May-19 11:30N 51°30' W 002°43'0 0.0
2018-May-19 11:00N 51°30' W 002°43'0 0.0
2018-May-19 10:30N 51°30' W 002°43'0 0.0
2018-May-19 10:00N 51°30' W 002°43'0 0.0
2018-May-19 09:30N 51°30' W 002°43'0 0.5
2018-May-19 09:00N 51°30' W 002°43'0 0.5
2018-May-19 08:30N 51°30' W 002°44'3 6.7
2018-May-19 08:00N 51°29' W 002°49'713.3
2018-May-19 07:30N 51°27' W 002°59'914.8
2018-May-19 06:54N 51°21' W 003°10'3712.4
2018-May-19 03:55N 51°17' W 004°09'612.1
2018-May-19 03:24N 51°16' W 004°19'612.2
2018-May-19 02:55N 51°12' W 004°25'512.0
2018-May-19 02:29N 51°08' W 004°30'612.1
2018-May-19 02:00N 51°05' W 004°38'611.9
2018-May-19 01:30N 51°01' W 004°46'611.9
2018-May-19 01:00N 50°57' W 004°53'612.0
2018-May-19 00:30N 50°53' W 005°00'612.0
2018-May-19 00:00N 50°49' W 005°07'612.0
2018-May-18 23:31N 50°45' W 005°14'611.9
2018-May-18 23:00N 50°41' W 005°20'612.0
2018-May-18 22:30N 50°36' W 005°27'611.9
2018-May-18 22:00N 50°32' W 005°34'611.9
2018-May-18 21:30N 50°28' W 005°40'611.9
2018-May-18 21:00N 50°24' W 005°47'611.7
2018-May-18 20:30N 50°19' W 005°53'612.0
2018-May-18 19:59N 50°13' W 005°53'612.0
2018-May-18 19:30N 50°07' W 005°53'1012.0
2018-May-18 18:40N 49°57' W 005°53'311.6
2018-May-18 18:26N 49°55' W 005°51'5312.2
2018-May-18 14:03N 49°54' W 004°28'112.7
2018-May-18 14:00N 49°54' W 004°27'913.3
2018-May-18 13:21N 49°55' W 004°14'1813.4
2018-May-18 12:00N 49°57' W 003°46'612.9
2018-May-18 11:30N 49°58' W 003°36'612.9
2018-May-18 11:00N 49°59' W 003°27'712.7
2018-May-18 10:29N 50°00' W 003°17'612.7
2018-May-18 10:00N 50°01' W 003°07'612.5
2018-May-18 09:30N 50°01' W 002°58'611.9
2018-May-18 09:00N 50°02' W 002°48'1011.8
2018-May-18 08:10N 50°05' W 002°33'1812.0
2018-May-18 06:40N 50°09' W 002°07'212.4
2018-May-18 06:30N 50°10' W 002°03'612.1
2018-May-18 05:59N 50°12' W 001°54'612.0
2018-May-18 05:30N 50°13' W 001°45'611.9
2018-May-18 05:00N 50°15' W 001°36'612.2
2018-May-18 04:30N 50°16' W 001°27'612.0
2018-May-18 04:00N 50°18' W 001°18'1112.1
2018-May-18 03:08N 50°21' W 001°02'213.6
2018-May-18 03:00N 50°21' W 000°59'1014.9
2018-May-18 02:20N 50°24' W 000°44'515.0
2018-May-18 01:58N 50°25' W 000°36'813.5
2018-May-18 01:23N 50°28' W 000°25'614.3
2018-May-18 01:00N 50°30' W 000°16'714.1
2018-May-18 00:30N 50°31' W 000°06'713.4
2018-May-18 00:00N 50°32' E 000°05'612.8
2018-May-17 23:30N 50°34' E 000°14'612.2
2018-May-17 23:00N 50°36' E 000°24'611.9
2018-May-17 22:30N 50°37' E 000°33'611.8
2018-May-17 22:00N 50°40' E 000°41'612.2
2018-May-17 21:30N 50°44' E 000°49'612.6
2018-May-17 20:59N 50°47' E 000°57'2114.3
2018-May-17 19:33N 51°02' E 001°21'313.0
2018-May-17 19:18N 51°05' E 001°20'2 5.6
2018-May-17 18:55N 51°07' E 001°19'0 0.0
2018-May-17 17:29N 51°07' E 001°19'0 0.0
2018-May-17 15:56N 51°07' E 001°19'0 0.0
2018-May-17 14:20N 51°07' E 001°19'0 0.0
2018-May-17 13:47N 51°07' E 001°19'0 0.0
2018-May-17 13:28N 51°07' E 001°19'0 0.0
2018-May-17 13:00N 51°07' E 001°19'0 0.0
2018-May-17 12:13N 51°07' E 001°19'0 0.0
2018-May-17 09:41N 51°07' E 001°19'0 0.0
2018-May-17 05:39N 51°07' E 001°19'2 4.1
2018-May-17 05:11N 51°07' E 001°22'2 8.7
2018-May-17 05:00N 51°07' E 001°25'4 7.8
2018-May-17 04:30N 51°05' E 001°30'5 9.9
2018-May-17 04:01N 51°01' E 001°32'6311.6
2018-May-16 22:37N 50°20' E 000°17'414.0
2018-May-16 22:17N 50°19' E 000°10'514.9
2018-May-16 21:58N 50°17' E 000°03'715.2
2018-May-16 21:29N 50°15' W 000°07'815.4
2018-May-16 20:57N 50°11' W 000°19'715.4
2018-May-16 20:29N 50°08' W 000°29'815.2
2018-May-16 19:57N 50°05' W 000°41'714.8
2018-May-16 19:29N 50°02' W 000°51'814.5
2018-May-16 18:56N 49°59' W 001°02'714.1
2018-May-16 18:29N 49°56' W 001°11'613.4
2018-May-16 18:00N 49°54' W 001°20'713.9
2018-May-16 17:30N 49°50' W 001°30'713.0
2018-May-16 17:00N 49°46' W 001°37'510.4
2018-May-16 16:30N 49°41' W 001°40'3 6.4
2018-May-16 16:01N 49°39' W 001°37'0 0.0
2018-May-16 15:30N 49°39' W 001°37'0 0.0
2018-May-16 15:00N 49°39' W 001°37'0 0.0
2018-May-16 14:30N 49°39' W 001°37'0 0.0
2018-May-16 14:00N 49°39' W 001°37'0 0.0
2018-May-16 13:30N 49°39' W 001°37'0 0.0
2018-May-16 13:00N 49°39' W 001°37'0 0.0
2018-May-16 12:30N 49°39' W 001°37'0 0.0
2018-May-16 12:00N 49°39' W 001°37'0 0.0
2018-May-16 11:29N 49°39' W 001°37'0 0.0
2018-May-16 10:59N 49°39' W 001°37'0 0.0
2018-May-16 10:30N 49°39' W 001°37'0 0.0
2018-May-16 10:00N 49°39' W 001°37'0 0.0
2018-May-16 09:30N 49°39' W 001°37'0 0.0
2018-May-16 08:59N 49°39' W 001°37'0 0.0
2018-May-16 08:30N 49°39' W 001°37'0 0.0
2018-May-16 07:59N 49°39' W 001°37'0 0.0
2018-May-16 07:29N 49°39' W 001°37'0 0.0
2018-May-16 07:00N 49°39' W 001°37'0 0.0
2018-May-16 06:30N 49°39' W 001°37'0 0.0
2018-May-16 06:00N 49°39' W 001°37'0 0.0
2018-May-16 05:30N 49°39' W 001°37'0 0.0
2018-May-16 05:00N 49°39' W 001°37'1 1.7
2018-May-16 04:31N 49°40' W 001°37'5 9.1
2018-May-16 04:01N 49°43' W 001°41'510.7
2018-May-16 03:30N 49°47' W 001°35'713.8
2018-May-16 03:00N 49°51' W 001°27'918.8
2018-May-16 02:31N 49°49' W 001°13'918.3
2018-May-16 02:00N 49°45' W 000°60'2117.5
2018-May-16 00:49N 49°36' W 000°30'619.7
2018-May-16 00:30N 49°34' W 000°22'918.8
2018-May-16 00:00N 49°30' W 000°08'713.2
2018-May-15 23:31N 49°27' E 000°01'5 9.9
2018-May-15 23:01N 49°26' E 000°08'611.2
2018-May-15 22:31N 49°26' E 000°17'510.2
2018-May-15 22:00N 49°27' E 000°24'4 8.4
2018-May-15 21:31N 49°29' E 000°30'3 6.0
2018-May-15 21:00N 49°27' E 000°33'3 7.0
2018-May-15 20:30N 49°27' E 000°39'4 8.5
2018-May-15 20:00N 49°31' E 000°41'4 7.8
2018-May-15 19:31N 49°30' E 000°46'5 9.6
2018-May-15 19:01N 49°25' E 000°48'3 5.1
2018-May-15 18:30N 49°27' E 000°51'3 6.1
2018-May-15 18:00N 49°27' E 000°56'612.5
2018-May-15 17:30N 49°21' E 000°56'4 7.5
2018-May-15 17:00N 49°23' E 001°01'4 7.1
2018-May-15 16:31N 49°27' E 001°03'0 0.1
2018-May-15 15:57N 49°27' E 001°03'0 0.0
2018-May-15 15:27N 49°27' E 001°03'0 0.0
2018-May-15 15:00N 49°27' E 001°03'0 0.0
2018-May-15 14:30N 49°27' E 001°03'0 0.0
2018-May-15 14:00N 49°27' E 001°03'0 0.0
2018-May-15 13:30N 49°27' E 001°03'0 0.0
2018-May-15 12:57N 49°27' E 001°03'0 0.0
2018-May-15 12:30N 49°27' E 001°03'0 0.0
2018-May-15 12:00N 49°27' E 001°03'0 0.0
2018-May-15 11:30N 49°27' E 001°03'0 0.0
2018-May-15 10:57N 49°27' E 001°03'0 0.0
2018-May-15 10:27N 49°27' E 001°03'0 0.0
2018-May-15 10:00N 49°27' E 001°03'0 0.0
2018-May-15 09:27N 49°27' E 001°03'0 0.0
2018-May-15 08:57N 49°27' E 001°03'0 0.0
2018-May-15 08:30N 49°27' E 001°03'0 0.0
2018-May-15 08:00N 49°27' E 001°03'0 0.0
2018-May-15 07:30N 49°27' E 001°03'0 0.0
2018-May-15 06:57N 49°27' E 001°03'0 0.0
2018-May-15 06:30N 49°27' E 001°03'0 0.0
2018-May-15 06:00N 49°27' E 001°03'0 0.0
2018-May-15 05:27N 49°27' E 001°03'0 0.0
2018-May-15 04:57N 49°27' E 001°03'  
Track history (hours):
 
Tides and Currents Weather Stations Pressure Air Temp Water Temp Dewpoint Dewpoint Depression Visibility Wind Speed Wind Dir Waves Ship Positions

Seabourn Quest

Last reported at 2018-May-25 04:42 UTC. Time now 2018-May-25 05:29 UTC.
Position N 56°37' W 005°24'.

Length 198 m; draft 6.7 m.

Type: Ship. MMSI: 311038900.

Date/timePositionNaut miles runAvg speedWind from/ knotsBaromVisibWave heightAir tempDewpointWater temp
2018-May-25 04:42N 56°37' W 005°24'2 9.0
2018-May-25 04:29N 56°36' W 005°27'5 9.3
2018-May-25 04:00N 56°32' W 005°32'4 9.0
2018-May-25 03:30N 56°29' W 005°38'4 8.4
2018-May-25 03:00N 56°25' W 005°37'3 0.5
2018-May-24 22:03N 56°26' W 005°33'110.2
2018-May-24 22:00N 56°26' W 005°32'1 1.6
2018-May-24 21:30N 56°26' W 005°30'0 0.0
2018-May-24 21:00N 56°26' W 005°30'0 0.1
2018-May-24 20:30N 56°26' W 005°30'0 0.1
2018-May-24 20:00N 56°26' W 005°30'0 0.0
2018-May-24 19:30N 56°26' W 005°30'0 0.1
2018-May-24 18:57N 56°26' W 005°30'0 0.1
2018-May-24 18:27N 56°26' W 005°31'0 0.0
2018-May-24 18:00N 56°26' W 005°30'0 0.0
2018-May-24 17:30N 56°26' W 005°30'0 0.0
2018-May-24 17:00N 56°26' W 005°30'0 0.0
2018-May-24 16:30N 56°26' W 005°30'0 0.0
2018-May-24 15:57N 56°26' W 005°30'0 0.0
2018-May-24 15:30N 56°26' W 005°30'0 0.0
2018-May-24 14:57N 56°26' W 005°30'0 0.0
2018-May-24 14:30N 56°26' W 005°30'0 0.0
2018-May-24 14:00N 56°26' W 005°30'0 0.0
2018-May-24 13:18N 56°26' W 005°30'0 0.0
2018-May-24 08:57N 56°26' W 005°30'0 0.0
2018-May-24 08:24N 56°26' W 005°30'0 0.0
2018-May-24 07:57N 56°26' W 005°30'0 0.0
2018-May-24 07:27N 56°26' W 005°31'0 0.0
2018-May-24 06:57N 56°26' W 005°31'0 0.1
2018-May-24 06:30N 56°26' W 005°30'3 5.3
2018-May-24 05:57N 56°25' W 005°35'5110.3
2018-May-24 00:57N 55°51' W 006°44'4 9.5
2018-May-24 00:30N 55°46' W 006°43'510.1
2018-May-24 00:00N 55°42' W 006°42'5 9.8
2018-May-23 23:30N 55°37' W 006°39'510.6
2018-May-23 23:00N 55°34' W 006°32'511.1
2018-May-23 22:30N 55°30' W 006°24'817.0
2018-May-23 22:00N 55°25' W 006°12'1019.0
2018-May-23 21:30N 55°20' W 005°58'1020.7
2018-May-23 21:00N 55°15' W 005°42'4315.4
2018-May-23 18:13N 55°49' W 004°57'415.9
2018-May-23 17:59N 55°53' W 004°56'7 3.2
2018-May-23 15:41N 55°57' W 004°46'0 0.0
2018-May-23 15:29N 55°57' W 004°46'0 0.0
2018-May-23 14:59N 55°57' W 004°46'0 0.0
2018-May-23 14:29N 55°57' W 004°46'0 0.0
2018-May-23 13:53N 55°57' W 004°46'0 0.0
2018-May-23 13:29N 55°57' W 004°46'0 0.0
2018-May-23 12:59N 55°57' W 004°46'0 0.0
2018-May-23 12:29N 55°57' W 004°46'0 0.0
2018-May-23 11:59N 55°57' W 004°46'0 0.0
2018-May-23 11:29N 55°57' W 004°46'0 0.0
2018-May-23 10:59N 55°57' W 004°46'0 0.0
2018-May-23 10:29N 55°57' W 004°46'0 0.0
2018-May-23 09:59N 55°57' W 004°46'0 0.0
2018-May-23 09:29N 55°57' W 004°46'0 0.0
2018-May-23 08:59N 55°57' W 004°46'0 0.0
2018-May-23 08:29N 55°57' W 004°46'0 0.0
2018-May-23 07:59N 55°57' W 004°46'0 0.0
2018-May-23 07:29N 55°57' W 004°46'0 0.0
2018-May-23 06:59N 55°57' W 004°46'0 0.0
2018-May-23 06:29N 55°57' W 004°46'1 1.1
2018-May-23 06:00N 55°58' W 004°46'5 9.3
2018-May-23 05:27N 55°56' W 004°55'715.0
2018-May-23 05:00N 55°49' W 004°57'713.5
2018-May-23 04:30N 55°43' W 004°59'3613.0
2018-May-23 01:47N 55°09' W 005°18'414.1
2018-May-23 01:30N 55°06' W 005°22'1613.0
2018-May-23 00:17N 54°51' W 005°32'414.7
2018-May-23 00:00N 54°47' W 005°35'713.7
2018-May-22 23:31N 54°42' W 005°43'611.2
2018-May-22 23:00N 54°39' W 005°51'3 4.7
2018-May-22 22:28N 54°37' W 005°54'1 1.2
2018-May-22 21:58N 54°37' W 005°55'0 0.0
2018-May-22 21:28N 54°37' W 005°55'0 0.0
2018-May-22 20:58N 54°37' W 005°55'0 0.0
2018-May-22 20:25N 54°37' W 005°55'0 0.0
2018-May-22 19:58N 54°37' W 005°55'0 0.0
2018-May-22 19:28N 54°37' W 005°55'0 0.0
2018-May-22 18:58N 54°37' W 005°55'0 0.0
2018-May-22 18:28N 54°37' W 005°55'0 0.0
2018-May-22 17:58N 54°37' W 005°55'0 0.0
2018-May-22 17:28N 54°37' W 005°55'0 0.0
2018-May-22 16:58N 54°37' W 005°55'0 0.0
2018-May-22 16:28N 54°37' W 005°55'0 0.0
2018-May-22 15:55N 54°37' W 005°55'0 0.0
2018-May-22 15:28N 54°37' W 005°55'0 0.0
2018-May-22 14:55N 54°37' W 005°55'0 0.0
2018-May-22 14:25N 54°37' W 005°55'0 0.0
2018-May-22 13:58N 54°37' W 005°55'0 0.0
2018-May-22 13:28N 54°37' W 005°55'0 0.0
2018-May-22 12:55N 54°37' W 005°55'0 0.0
2018-May-22 12:28N 54°37' W 005°55'0 0.0
2018-May-22 11:55N 54°37' W 005°55'0 0.0
2018-May-22 11:28N 54°37' W 005°55'0 0.0
2018-May-22 10:52N 54°37' W 005°55'0 0.0
2018-May-22 10:28N 54°37' W 005°55'0 0.0
2018-May-22 09:55N 54°37' W 005°55'0 0.0
2018-May-22 09:28N 54°37' W 005°55'0 0.0
2018-May-22 08:58N 54°37' W 005°55'0 0.0
2018-May-22 08:28N 54°37' W 005°55'0 0.0
2018-May-22 07:58N 54°37' W 005°55'0 0.0
2018-May-22 07:28N 54°37' W 005°55'0 0.0
2018-May-22 06:58N 54°37' W 005°55'1 2.2
2018-May-22 06:18N 54°38' W 005°53'2 7.6
2018-May-22 06:00N 54°40' W 005°51'4 9.1
2018-May-22 05:30N 54°42' W 005°44'4 8.9
2018-May-22 05:00N 54°43' W 005°37'510.2
2018-May-22 04:30N 54°45' W 005°28'5 9.8
2018-May-22 04:00N 54°44' W 005°20'4 8.6
2018-May-22 03:30N 54°41' W 005°14'5 9.8
2018-May-22 03:00N 54°36' W 005°14'510.0
2018-May-22 02:30N 54°31' W 005°14'510.0
2018-May-22 02:00N 54°26' W 005°13'510.0
2018-May-22 01:30N 54°21' W 005°13'510.0
2018-May-22 01:00N 54°16' W 005°13'510.3
2018-May-22 00:29N 54°11' W 005°13'25 3.9
2018-May-21 18:12N 54°02' W 004°34'8 0.6
2018-May-21 06:02N 54°08' W 004°27'211.6
2018-May-21 05:53N 54°07' W 004°28'612.1
2018-May-21 05:23N 54°01' W 004°33'7313.0
2018-May-20 23:44N 52°53' W 005°18'415.1
2018-May-20 23:27N 52°49' W 005°21'816.9
2018-May-20 23:00N 52°42' W 005°23'816.3
2018-May-20 22:29N 52°33' W 005°26'816.1
2018-May-20 22:00N 52°26' W 005°30'815.7
2018-May-20 21:30N 52°18' W 005°33'815.2
2018-May-20 21:00N 52°11' W 005°37'714.7
2018-May-20 20:30N 52°04' W 005°40'714.1
2018-May-20 20:00N 51°57' W 005°43'1013.5
2018-May-20 19:15N 51°47' W 005°48'313.5
2018-May-20 19:00N 51°44' W 005°49'611.6
2018-May-20 18:30N 51°38' W 005°48'814.4
2018-May-20 17:58N 51°38' W 005°35'613.9
2018-May-20 17:30N 51°38' W 005°25'612.2
2018-May-20 17:00N 51°38' W 005°15'611.4
2018-May-20 16:30N 51°42' W 005°08'4 7.3
2018-May-20 15:59N 51°42' W 005°02'0 0.0
2018-May-20 15:29N 51°42' W 005°02'0 0.0
2018-May-20 14:59N 51°42' W 005°02'0 0.0
2018-May-20 14:29N 51°42' W 005°02'0 0.0
2018-May-20 13:59N 51°42' W 005°02'0 0.0
2018-May-20 13:29N 51°42' W 005°02'0 0.1
2018-May-20 12:59N 51°42' W 005°02'0 0.0
2018-May-20 12:29N 51°42' W 005°02'0 0.0
2018-May-20 11:59N 51°42' W 005°02'0 0.0
2018-May-20 11:29N 51°42' W 005°02'0 0.0
2018-May-20 10:59N 51°42' W 005°02'0 0.1
2018-May-20 10:29N 51°42' W 005°02'0 0.0
2018-May-20 09:53N 51°42' W 005°02'0 0.0
2018-May-20 09:23N 51°42' W 005°02'0 0.0
2018-May-20 08:59N 51°42' W 005°02'0 0.0
2018-May-20 08:23N 51°42' W 005°02'0 0.0
2018-May-20 07:59N 51°42' W 005°02'0 0.0
2018-May-20 07:29N 51°42' W 005°02'0 0.0
2018-May-20 06:59N 51°42' W 005°02'0 0.1
2018-May-20 06:30N 51°42' W 005°02'1 2.1
2018-May-20 06:00N 51°42' W 005°04'3 6.7
2018-May-20 05:30N 51°41' W 005°09'611.6
2018-May-20 05:00N 51°36' W 005°11'5 8.8
2018-May-20 04:29N 51°32' W 005°06'5 9.8
2018-May-20 04:01N 51°29' W 005°01'5 9.8
2018-May-20 03:30N 51°28' W 004°53'510.1
2018-May-20 03:00N 51°28' W 004°45'510.4
2018-May-20 02:31N 51°27' W 004°37'510.4
2018-May-20 02:00N 51°26' W 004°28'5 9.9
2018-May-20 01:30N 51°25' W 004°20'5 9.6
2018-May-20 01:00N 51°25' W 004°13'510.0
2018-May-20 00:30N 51°24' W 004°05'510.6
2018-May-20 00:01N 51°23' W 003°57'510.8
2018-May-19 23:30N 51°23' W 003°48'1611.2
2018-May-19 22:03N 51°21' W 003°22'311.2
2018-May-19 21:49N 51°21' W 003°18'1012.2
2018-May-19 20:59N 51°24' W 003°03'914.8
2018-May-19 20:22N 51°29' W 002°50'411.1
2018-May-19 20:00N 51°30' W 002°44'0 0.5
2018-May-19 19:30N 51°30' W 002°44'0 0.6
2018-May-19 19:00N 51°30' W 002°43'0 0.0
2018-May-19 18:31N 51°30' W 002°43'0 0.0
2018-May-19 18:00N 51°30' W 002°43'0 0.0
2018-May-19 17:30N 51°30' W 002°43'0 0.0
2018-May-19 17:00N 51°30' W 002°43'0 0.0
2018-May-19 16:31N 51°30' W 002°43'0 0.0
2018-May-19 16:00N 51°30' W 002°43'0 0.0
2018-May-19 15:30N 51°30' W 002°43'0 0.0
2018-May-19 15:00N 51°30' W 002°43'0 0.0
2018-May-19 14:30N 51°30' W 002°43'0 0.0
2018-May-19 14:00N 51°30' W 002°43'0 0.0
2018-May-19 13:31N 51°30' W 002°43'0 0.0
2018-May-19 13:01N 51°30' W 002°43'0 0.0
2018-May-19 12:30N 51°30' W 002°43'0 0.0
2018-May-19 12:01N 51°30' W 002°43'0 0.0
2018-May-19 11:30N 51°30' W 002°43'0 0.0
2018-May-19 11:00N 51°30' W 002°43'0 0.0
2018-May-19 10:30N 51°30' W 002°43'0 0.0
2018-May-19 10:00N 51°30' W 002°43'0 0.0
2018-May-19 09:30N 51°30' W 002°43'0 0.5
2018-May-19 09:00N 51°30' W 002°43'0 0.5
2018-May-19 08:30N 51°30' W 002°44'3 6.7
2018-May-19 08:00N 51°29' W 002°49'713.3
2018-May-19 07:30N 51°27' W 002°59'914.8
2018-May-19 06:54N 51°21' W 003°10'3712.4
2018-May-19 03:55N 51°17' W 004°09'612.1
2018-May-19 03:24N 51°16' W 004°19'612.2
2018-May-19 02:55N 51°12' W 004°25'512.0
2018-May-19 02:29N 51°08' W 004°30'612.1
2018-May-19 02:00N 51°05' W 004°38'611.9
2018-May-19 01:30N 51°01' W 004°46'611.9
2018-May-19 01:00N 50°57' W 004°53'612.0
2018-May-19 00:30N 50°53' W 005°00'612.0
2018-May-19 00:00N 50°49' W 005°07'612.0
2018-May-18 23:31N 50°45' W 005°14'611.9
2018-May-18 23:00N 50°41' W 005°20'612.0
2018-May-18 22:30N 50°36' W 005°27'611.9
2018-May-18 22:00N 50°32' W 005°34'611.9
2018-May-18 21:30N 50°28' W 005°40'611.9
2018-May-18 21:00N 50°24' W 005°47'611.7
2018-May-18 20:30N 50°19' W 005°53'612.0
2018-May-18 19:59N 50°13' W 005°53'612.0
2018-May-18 19:30N 50°07' W 005°53'1012.0
2018-May-18 18:40N 49°57' W 005°53'311.6
2018-May-18 18:26N 49°55' W 005°51'5312.2
2018-May-18 14:03N 49°54' W 004°28'112.7
2018-May-18 14:00N 49°54' W 004°27'913.3
2018-May-18 13:21N 49°55' W 004°14'1813.4
2018-May-18 12:00N 49°57' W 003°46'612.9
2018-May-18 11:30N 49°58' W 003°36'612.9
2018-May-18 11:00N 49°59' W 003°27'712.7
2018-May-18 10:29N 50°00' W 003°17'612.7
2018-May-18 10:00N 50°01' W 003°07'612.5
2018-May-18 09:30N 50°01' W 002°58'611.9
2018-May-18 09:00N 50°02' W 002°48'1011.8
2018-May-18 08:10N 50°05' W 002°33'1812.0
2018-May-18 06:40N 50°09' W 002°07'212.4
2018-May-18 06:30N 50°10' W 002°03'612.1
2018-May-18 05:59N 50°12' W 001°54'612.0
2018-May-18 05:30N 50°13' W 001°45'611.9
2018-May-18 05:00N 50°15' W 001°36'612.2
2018-May-18 04:30N 50°16' W 001°27'612.0
2018-May-18 04:00N 50°18' W 001°18'1112.1
2018-May-18 03:08N 50°21' W 001°02'213.6
2018-May-18 03:00N 50°21' W 000°59'1014.9
2018-May-18 02:20N 50°24' W 000°44'515.0
2018-May-18 01:58N 50°25' W 000°36'813.5
2018-May-18 01:23N 50°28' W 000°25'614.3
2018-May-18 01:00N 50°30' W 000°16'714.1
2018-May-18 00:30N 50°31' W 000°06'713.4
2018-May-18 00:00N 50°32' E 000°05'612.8
2018-May-17 23:30N 50°34' E 000°14'612.2
2018-May-17 23:00N 50°36' E 000°24'611.9
2018-May-17 22:30N 50°37' E 000°33'611.8
2018-May-17 22:00N 50°40' E 000°41'612.2
2018-May-17 21:30N 50°44' E 000°49'612.6
2018-May-17 20:59N 50°47' E 000°57'2114.3
2018-May-17 19:33N 51°02' E 001°21'313.0
2018-May-17 19:18N 51°05' E 001°20'2 5.6
2018-May-17 18:55N 51°07' E 001°19'0 0.0
2018-May-17 17:29N 51°07' E 001°19'0 0.0
2018-May-17 15:56N 51°07' E 001°19'0 0.0
2018-May-17 14:20N 51°07' E 001°19'0 0.0
2018-May-17 13:47N 51°07' E 001°19'0 0.0
2018-May-17 13:28N 51°07' E 001°19'0 0.0
2018-May-17 13:00N 51°07' E 001°19'0 0.0
2018-May-17 12:13N 51°07' E 001°19'0 0.0
2018-May-17 09:41N 51°07' E 001°19'0 0.0
2018-May-17 05:39N 51°07' E 001°19'2 4.1
2018-May-17 05:11N 51°07' E 001°22'2 8.7
2018-May-17 05:00N 51°07' E 001°25'4 7.8
2018-May-17 04:30N 51°05' E 001°30'5 9.9
2018-May-17 04:01N 51°01' E 001°32'6311.6
2018-May-16 22:37N 50°20' E 000°17'414.0
2018-May-16 22:17N 50°19' E 000°10'514.9
2018-May-16 21:58N 50°17' E 000°03'715.2
2018-May-16 21:29N 50°15' W 000°07'815.4
2018-May-16 20:57N 50°11' W 000°19'715.4
2018-May-16 20:29N 50°08' W 000°29'815.2
2018-May-16 19:57N 50°05' W 000°41'714.8
2018-May-16 19:29N 50°02' W 000°51'814.5
2018-May-16 18:56N 49°59' W 001°02'714.1
2018-May-16 18:29N 49°56' W 001°11'613.4
2018-May-16 18:00N 49°54' W 001°20'713.9
2018-May-16 17:30N 49°50' W 001°30'713.0
2018-May-16 17:00N 49°46' W 001°37'510.4
2018-May-16 16:30N 49°41' W 001°40'3 6.4
2018-May-16 16:01N 49°39' W 001°37'0 0.0
2018-May-16 15:30N 49°39' W 001°37'0 0.0
2018-May-16 15:00N 49°39' W 001°37'0 0.0
2018-May-16 14:30N 49°39' W 001°37'0 0.0
2018-May-16 14:00N 49°39' W 001°37'0 0.0
2018-May-16 13:30N 49°39' W 001°37'0 0.0
2018-May-16 13:00N 49°39' W 001°37'0 0.0
2018-May-16 12:30N 49°39' W 001°37'0 0.0
2018-May-16 12:00N 49°39' W 001°37'0 0.0
2018-May-16 11:29N 49°39' W 001°37'0 0.0
2018-May-16 10:59N 49°39' W 001°37'0 0.0
2018-May-16 10:30N 49°39' W 001°37'0 0.0
2018-May-16 10:00N 49°39' W 001°37'0 0.0
2018-May-16 09:30N 49°39' W 001°37'0 0.0
2018-May-16 08:59N 49°39' W 001°37'0 0.0
2018-May-16 08:30N 49°39' W 001°37'0 0.0
2018-May-16 07:59N 49°39' W 001°37'0 0.0
2018-May-16 07:29N 49°39' W 001°37'0 0.0
2018-May-16 07:00N 49°39' W 001°37'0 0.0
2018-May-16 06:30N 49°39' W 001°37'0 0.0
2018-May-16 06:00N 49°39' W 001°37'0 0.0
2018-May-16 05:30N 49°39' W 001°37'0 0.0
2018-May-16 05:00N 49°39' W 001°37'1 1.7
2018-May-16 04:31N 49°40' W 001°37'5 9.1
2018-May-16 04:01N 49°43' W 001°41'510.7
2018-May-16 03:30N 49°47' W 001°35'713.8
2018-May-16 03:00N 49°51' W 001°27'918.8
2018-May-16 02:31N 49°49' W 001°13'918.3
2018-May-16 02:00N 49°45' W 000°60'2117.5
2018-May-16 00:49N 49°36' W 000°30'619.7
2018-May-16 00:30N 49°34' W 000°22'918.8
2018-May-16 00:00N 49°30' W 000°08'713.2
2018-May-15 23:31N 49°27' E 000°01'5 9.9
2018-May-15 23:01N 49°26' E 000°08'611.2
2018-May-15 22:31N 49°26' E 000°17'510.2
2018-May-15 22:00N 49°27' E 000°24'4 8.4
2018-May-15 21:31N 49°29' E 000°30'3 6.0
2018-May-15 21:00N 49°27' E 000°33'3 7.0
2018-May-15 20:30N 49°27' E 000°39'4 8.5
2018-May-15 20:00N 49°31' E 000°41'4 7.8
2018-May-15 19:31N 49°30' E 000°46'5 9.6
2018-May-15 19:01N 49°25' E 000°48'3 5.1
2018-May-15 18:30N 49°27' E 000°51'3 6.1
2018-May-15 18:00N 49°27' E 000°56'612.5
2018-May-15 17:30N 49°21' E 000°56'4 7.5
2018-May-15 17:00N 49°23' E 001°01'4 7.1
2018-May-15 16:31N 49°27' E 001°03'0 0.1
2018-May-15 15:57N 49°27' E 001°03'0 0.0
2018-May-15 15:27N 49°27' E 001°03'0 0.0
2018-May-15 15:00N 49°27' E 001°03'0 0.0
2018-May-15 14:30N 49°27' E 001°03'0 0.0
2018-May-15 14:00N 49°27' E 001°03'0 0.0
2018-May-15 13:30N 49°27' E 001°03'0 0.0
2018-May-15 12:57N 49°27' E 001°03'0 0.0
2018-May-15 12:30N 49°27' E 001°03'0 0.0
2018-May-15 12:00N 49°27' E 001°03'0 0.0
2018-May-15 11:30N 49°27' E 001°03'0 0.0
2018-May-15 10:57N 49°27' E 001°03'0 0.0
2018-May-15 10:27N 49°27' E 001°03'0 0.0
2018-May-15 10:00N 49°27' E 001°03'0 0.0
2018-May-15 09:27N 49°27' E 001°03'0 0.0
2018-May-15 08:57N 49°27' E 001°03'0 0.0
2018-May-15 08:30N 49°27' E 001°03'0 0.0
2018-May-15 08:00N 49°27' E 001°03'0 0.0
2018-May-15 07:30N 49°27' E 001°03'0 0.0
2018-May-15 06:57N 49°27' E 001°03'0 0.0
2018-May-15 06:30N 49°27' E 001°03'0 0.0
2018-May-15 06:00N 49°27' E 001°03'0 0.0
2018-May-15 05:27N 49°27' E 001°03'0 0.0
2018-May-15 04:57N 49°27' E 001°03'  

Dump ship's entire track history